Time;durP1;ratioP1;P1;durP2;ratioP2;P2;SDS_P1;SDS_P2;PMS_P1;PMS_P2;Temp;Humidity;BMP_temperature;BMP_pressure;BME280_temperature;BME280_humidity;BME280_pressure;Samples;Min_cycle;Max_cycle;Signal;HPM_P1;HPM_P2
2020/12/26 00:00:31;;;;;;;9.35;3.75;;;;;;;8.20;64.75;100396.56;5055775;28;20045;-73
2020/12/26 00:02:57;;;;;;;7.15;4.88;;;;;;;7.84;65.55;100370.03;5045558;28;20079;-72
2020/12/26 00:05:24;;;;;;;10.65;5.70;;;;;;;7.78;65.67;100346.53;5045141;28;20037;-72
2020/12/26 00:07:52;;;;;;;9.48;5.38;;;;;;;7.93;66.22;100333.75;5037987;28;20060;-73
2020/12/26 00:10:20;;;;;;;7.25;4.85;;;;;;;7.51;67.16;100317.53;5025978;28;20049;-74
2020/12/26 00:12:48;;;;;;;10.43;4.72;;;;;;;7.82;66.56;100330.13;5027889;28;20357;-74
2020/12/26 00:15:15;;;;;;;6.40;5.05;;;;;;;7.72;66.78;100323.91;5027912;28;20051;-74
2020/12/26 00:17:42;;;;;;;6.15;4.78;;;;;;;7.68;67.17;100336.84;5025815;28;20042;-73
2020/12/26 00:20:08;;;;;;;7.70;5.72;;;;;;;7.70;66.89;100328.25;5041046;28;20041;-75
2020/12/26 00:22:35;;;;;;;7.10;4.93;;;;;;;7.84;66.83;100328.44;5041987;28;20033;-72
2020/12/26 00:25:03;;;;;;;7.95;5.20;;;;;;;7.72;67.08;100312.66;5025479;28;20223;-74
2020/12/26 00:27:30;;;;;;;9.82;5.53;;;;;;;8.11;66.50;100340.91;5044661;28;20179;-73
2020/12/26 00:29:58;;;;;;;7.68;5.80;;;;;;;8.03;66.72;100327.81;5049322;28;20033;-73
2020/12/26 00:32:25;;;;;;;10.20;5.35;;;;;;;8.06;66.70;100338.25;5024579;28;20560;-73
2020/12/26 00:34:53;;;;;;;8.27;5.35;;;;;;;7.93;67.45;100340.69;5039677;28;20076;-73
2020/12/26 00:37:19;;;;;;;9.80;4.93;;;;;;;8.15;67.00;100329.72;5041294;28;20045;-72
2020/12/26 00:39:46;;;;;;;5.25;4.30;;;;;;;8.22;66.54;100329.78;5050225;28;20045;-74
2020/12/26 00:42:14;;;;;;;5.35;4.50;;;;;;;7.87;67.61;100331.06;5046001;28;20041;-72
2020/12/26 00:44:40;;;;;;;6.10;4.63;;;;;;;8.10;67.05;100331.38;5049010;28;20060;-74
2020/12/26 00:47:07;;;;;;;6.88;4.93;;;;;;;8.20;66.57;100308.06;5042865;28;20045;-73
2020/12/26 00:49:39;;;;;;;8.75;4.75;;;;;;;8.32;66.66;100313.47;5046615;28;20040;-72
2020/12/26 00:52:06;;;;;;;6.82;3.95;;;;;;;8.57;66.11;100293.78;5051013;28;20045;-72
2020/12/26 00:54:33;;;;;;;6.95;4.03;;;;;;;8.40;66.60;100297.91;5045555;28;20056;-72
2020/12/26 00:56:59;;;;;;;7.05;4.03;;;;;;;8.83;65.42;100290.53;5045223;28;20044;-72
2020/12/26 00:59:26;;;;;;;5.50;3.28;;;;;;;8.65;65.55;100283.41;5073423;28;20515;-72
2020/12/26 01:01:53;;;;;;;7.65;3.33;;;;;;;8.09;67.38;100288.88;5041854;28;20425;-73
2020/12/26 01:04:20;;;;;;;3.08;2.78;;;;;;;8.33;67.08;100275.28;5031232;28;20095;-72
2020/12/26 01:06:54;;;;;;;4.18;3.13;;;;;;;8.38;66.78;100263.19;5029483;28;20112;-74
2020/12/26 01:09:24;;;;;;;4.30;3.00;;;;;;;8.16;67.41;100275.06;5032490;28;20043;-73
2020/12/26 01:11:51;;;;;;;3.30;2.60;;;;;;;8.16;68.17;100281.97;5029352;28;20037;-73
2020/12/26 01:14:20;;;;;;;3.42;2.97;;;;;;;8.33;67.49;100272.69;5044533;28;20048;-73
2020/12/26 01:16:50;;;;;;;5.10;2.70;;;;;;;8.51;67.14;100272.00;5047537;28;20049;-73
2020/12/26 01:19:18;;;;;;;4.25;2.75;;;;;;;8.44;67.07;100273.66;5043298;28;20066;-73
2020/12/26 01:21:52;;;;;;;2.95;2.40;;;;;;;8.59;66.61;100266.00;5047176;28;20441;-73
2020/12/26 01:24:22;;;;;;;4.97;2.35;;;;;;;8.45;67.05;100267.59;5026768;28;20732;-73
2020/12/26 01:26:50;;;;;;;7.43;1.90;;;;;;;8.25;67.59;100251.72;5046506;28;20045;-74
2020/12/26 01:29:17;;;;;;;2.20;1.77;;;;;;;8.46;67.07;100260.66;5046626;28;20040;-74
2020/12/26 01:31:50;;;;;;;3.42;1.80;;;;;;;8.82;65.63;100260.16;5045090;28;20558;-73
2020/12/26 01:34:20;;;;;;;3.80;2.30;;;;;;;8.42;67.48;100258.88;5042662;28;20507;-73
2020/12/26 01:36:50;;;;;;;3.70;2.13;;;;;;;8.42;67.42;100238.94;5078273;28;20041;-73
2020/12/26 01:39:21;;;;;;;5.85;1.90;;;;;;;8.35;67.67;100239.72;5026976;28;20739;-73
2020/12/26 01:41:54;;;;;;;2.88;1.70;;;;;;;8.19;68.46;100220.47;5039839;28;20908;-72
2020/12/26 01:44:22;;;;;;;2.25;1.85;;;;;;;8.16;68.40;100225.59;5042570;28;20493;-72
2020/12/26 01:46:50;;;;;;;5.18;1.67;;;;;;;8.10;69.23;100232.50;5045051;28;20384;-71
2020/12/26 01:49:20;;;;;;;2.95;1.75;;;;;;;8.40;68.22;100238.03;5037639;28;20397;-72
2020/12/26 01:51:48;;;;;;;2.10;1.85;;;;;;;8.51;67.69;100233.81;5047544;28;20077;-73
2020/12/26 01:54:15;;;;;;;2.38;1.75;;;;;;;8.36;68.46;100230.19;5045383;28;20047;-73
2020/12/26 01:56:43;;;;;;;2.78;1.77;;;;;;;8.90;66.88;100227.19;5047881;28;20167;-72
2020/12/26 01:59:09;;;;;;;2.83;2.00;;;;;;;8.39;67.82;100225.91;5046261;28;20467;-72
2020/12/26 02:01:41;;;;;;;2.85;1.73;;;;;;;8.73;67.35;100234.88;5045311;28;20037;-71
2020/12/26 02:04:09;;;;;;;;;;;;;;;8.85;66.70;100235.00;5040172;28;20035;-73
2020/12/26 02:06:43;;;;;;;2.53;1.83;;;;;;;8.63;67.84;100233.91;5046742;28;19928;-73
2020/12/26 02:09:15;;;;;;;3.13;1.50;;;;;;;8.96;66.47;100235.06;5041196;28;20231;-73
2020/12/26 02:11:44;;;;;;;2.00;1.80;;;;;;;8.90;66.61;100228.09;5028854;28;20065;-73
2020/12/26 02:14:10;;;;;;;5.05;1.60;;;;;;;8.96;66.85;100219.44;5066328;28;20212;-73
2020/12/26 02:16:45;;;;;;;1.65;1.45;;;;;;;8.77;67.32;100218.44;5054588;28;20048;-74
2020/12/26 02:19:13;;;;;;;2.55;1.50;;;;;;;8.73;67.21;100209.69;5043757;28;20045;-72
2020/12/26 02:21:41;;;;;;;1.55;1.40;;;;;;;8.35;68.92;100199.78;5057342;28;20045;-73
2020/12/26 02:24:09;;;;;;;1.83;1.00;;;;;;;8.39;69.01;100189.44;5044856;28;20056;-73
2020/12/26 02:26:36;;;;;;;1.33;0.80;;;;;;;8.13;69.74;100176.13;5056683;28;20040;-72
2020/12/26 02:29:05;;;;;;;2.72;0.68;;;;;;;8.49;69.05;100187.81;5043090;28;20128;-72
2020/12/26 02:31:35;;;;;;;1.47;0.83;;;;;;;8.49;69.23;100198.22;5057245;28;20063;-73
2020/12/26 02:34:03;;;;;;;0.75;0.75;;;;;;;8.49;69.28;100201.66;5047078;28;20060;-72
2020/12/26 02:36:31;;;;;;;1.13;0.77;;;;;;;8.84;68.06;100215.00;5040403;28;20526;-72
2020/12/26 02:38:57;;;;;;;2.28;0.80;;;;;;;8.54;68.80;100194.78;5044110;28;20852;-72
2020/12/26 02:41:24;;;;;;;1.67;0.75;;;;;;;9.02;68.22;100199.50;5053840;28;20147;-73
2020/12/26 02:43:50;;;;;;;1.90;0.80;;;;;;;8.89;68.87;100202.88;5044707;28;20033;-73
2020/12/26 02:46:17;;;;;;;1.80;1.20;;;;;;;8.52;70.09;100204.31;5026000;28;20044;-73
2020/12/26 02:48:43;;;;;;;1.50;1.10;;;;;;;8.83;69.39;100194.13;5043403;28;20056;-74
2020/12/26 02:51:10;;;;;;;1.30;1.20;;;;;;;8.84;69.77;100181.13;5058530;28;20053;-72
2020/12/26 02:53:36;;;;;;;2.38;0.90;;;;;;;9.15;68.35;100172.66;5046476;28;20036;-72
2020/12/26 02:56:03;;;;;;;2.47;1.10;;;;;;;8.80;69.58;100178.50;5043586;28;20055;-73
2020/12/26 02:58:30;;;;;;;2.75;0.93;;;;;;;8.77;69.54;100170.66;5043489;28;20037;-72
2020/12/26 03:00:57;;;;;;;1.80;0.70;;;;;;;9.14;68.71;100170.03;5045658;28;20139;-74
2020/12/26 03:03:23;;;;;;;1.90;0.93;;;;;;;9.24;68.60;100157.94;5037461;28;20120;-73
2020/12/26 03:05:49;;;;;;;4.40;0.88;;;;;;;8.85;69.64;100163.75;5040173;28;20041;-75
2020/12/26 03:08:16;;;;;;;1.40;0.75;;;;;;;9.50;67.67;100151.09;5044022;28;20048;-73
2020/12/26 03:10:42;;;;;;;2.22;0.70;;;;;;;9.14;68.43;100146.59;5041575;28;20045;-73
2020/12/26 03:13:09;;;;;;;0.75;0.70;;;;;;;9.66;67.23;100142.47;5046422;28;20110;-72
2020/12/26 03:15:36;;;;;;;3.45;0.80;;;;;;;9.53;67.57;100136.34;5026601;28;20181;-73
2020/12/26 03:18:03;;;;;;;3.65;1.00;;;;;;;9.52;68.06;100137.22;5041010;28;20056;-73
2020/12/26 03:20:30;;;;;;;1.20;0.80;;;;;;;9.73;67.13;100130.31;5042433;28;20048;-73
2020/12/26 03:22:56;;;;;;;3.25;0.80;;;;;;;9.19;68.82;100126.63;5040311;28;20045;-74
2020/12/26 03:25:23;;;;;;;1.52;0.70;;;;;;;9.50;68.38;100114.56;5043217;28;20128;-73
2020/12/26 03:27:50;;;;;;;0.85;0.60;;;;;;;8.93;70.53;100112.56;5040991;28;20521;-73
2020/12/26 03:30:16;;;;;;;2.80;0.52;;;;;;;9.16;70.77;100105.75;5043575;28;20033;-74
2020/12/26 03:32:43;;;;;;;1.38;0.32;;;;;;;9.18;70.74;100101.41;5042795;28;20036;-73
2020/12/26 03:35:13;;;;;;;3.55;0.80;;;;;;;8.98;70.54;100085.69;5041329;28;20041;-73
2020/12/26 03:37:40;;;;;;;0.85;0.32;;;;;;;9.46;69.64;100079.78;5043174;28;20037;-73
2020/12/26 03:40:09;;;;;;;1.00;0.32;;;;;;;9.29;70.39;100089.31;5060479;28;20368;-73
2020/12/26 03:42:36;;;;;;;0.40;0.30;;;;;;;9.41;69.25;100081.50;5042556;28;20063;-73
2020/12/26 03:45:04;;;;;;;0.63;0.45;;;;;;;9.57;69.64;100082.44;5023832;28;20053;-74
2020/12/26 03:47:31;;;;;;;0.30;0.30;;;;;;;9.65;68.56;100072.88;5037274;28;20056;-74
2020/12/26 03:49:58;;;;;;;1.20;0.40;;;;;;;9.66;69.25;100064.22;5040584;28;20037;-73
2020/12/26 03:52:24;;;;;;;0.43;0.43;;;;;;;9.64;69.54;100056.38;5029202;28;20083;-72
2020/12/26 03:54:51;;;;;;;0.40;0.30;;;;;;;9.51;69.37;100035.47;5020760;28;20076;-73
2020/12/26 03:57:18;;;;;;;1.95;0.45;;;;;;;10.14;67.46;100045.13;5040208;28;20048;-73
2020/12/26 03:59:44;;;;;;;1.00;0.40;;;;;;;9.93;68.12;100035.53;5038950;28;20084;-75
2020/12/26 04:02:11;;;;;;;0.52;0.30;;;;;;;9.52;69.96;100030.28;5075268;28;20049;-73
2020/12/26 04:04:37;;;;;;;0.80;0.50;;;;;;;10.14;67.97;100023.34;5057862;28;20079;-73
2020/12/26 04:07:04;;;;;;;0.85;0.45;;;;;;;9.77;68.87;100012.94;5044804;28;20083;-73
2020/12/26 04:09:31;;;;;;;2.72;0.52;;;;;;;10.39;67.12;100010.31;5037696;28;20491;-73
2020/12/26 04:11:57;;;;;;;0.35;0.30;;;;;;;10.28;67.03;99998.13;5042594;28;20507;-72
2020/12/26 04:14:24;;;;;;;2.60;0.60;;;;;;;9.86;68.18;99999.00;5045034;28;20063;-73
2020/12/26 04:16:59;;;;;;;0.50;0.50;;;;;;;10.30;66.99;100001.63;5042623;28;20048;-74
2020/12/26 04:19:26;;;;;;;1.27;0.70;;;;;;;10.17;67.97;99995.53;5080012;28;20044;-73
2020/12/26 04:21:55;;;;;;;1.52;1.00;;;;;;;10.26;67.44;99990.34;5032087;28;20136;-73
2020/12/26 04:24:22;;;;;;;1.63;1.00;;;;;;;10.60;66.09;99991.09;5048586;28;20099;-75
2020/12/26 04:26:50;;;;;;;4.90;1.15;;;;;;;10.47;66.97;99986.78;5047004;28;20064;-74
2020/12/26 04:29:21;;;;;;;3.75;1.10;;;;;;;10.37;66.82;99972.00;5033652;28;20426;-73
2020/12/26 04:31:51;;;;;;;1.38;1.10;;;;;;;10.32;68.07;99965.91;5049102;28;20029;-73
2020/12/26 04:34:18;;;;;;;1.90;1.20;;;;;;;10.13;68.19;99958.97;5047158;28;20139;-73
2020/12/26 04:36:45;;;;;;;2.50;1.33;;;;;;;10.16;68.16;99961.63;5047659;28;20131;-73
2020/12/26 04:39:14;;;;;;;1.67;1.20;;;;;;;10.00;69.26;99955.50;5048104;28;20047;-73
2020/12/26 04:41:40;;;;;;;1.65;1.05;;;;;;;10.02;69.16;99944.19;5044215;28;20127;-73
2020/12/26 04:44:09;;;;;;;6.93;1.75;;;;;;;10.03;69.77;99938.09;5041005;28;20119;-72
2020/12/26 04:46:38;;;;;;;1.55;1.30;;;;;;;9.95;69.37;99932.03;5039969;28;20061;-73
2020/12/26 04:49:08;;;;;;;2.47;1.25;;;;;;;10.16;68.42;99936.38;5046668;28;20046;-72
2020/12/26 04:51:38;;;;;;;;;;;;;;;10.38;68.07;99931.97;5041124;28;20053;-75
2020/12/26 04:54:08;;;;;;;1.80;1.33;;;;;;;10.46;67.65;99931.06;5052313;28;20019;-73
2020/12/26 04:56:42;;;;;;;1.77;1.05;;;;;;;10.04;68.67;99924.19;5030941;28;20045;-74
2020/12/26 04:59:09;;;;;;;;;;;;;;;10.22;68.23;99920.69;5047150;28;20057;-72
2020/12/26 05:01:38;;;;;;;2.22;1.10;;;;;;;10.31;67.80;99918.03;5040186;28;19924;-74
2020/12/26 05:04:05;;;;;;;2.00;0.90;;;;;;;9.98;68.42;99908.50;5043474;28;20103;-74
2020/12/26 05:06:35;;;;;;;1.83;0.90;;;;;;;10.23;67.94;99906.75;5041349;28;20041;-74
2020/12/26 05:09:02;;;;;;;1.85;0.90;;;;;;;10.49;67.60;99899.72;5066047;28;20079;-74
2020/12/26 05:11:28;;;;;;;2.42;0.90;;;;;;;10.23;68.09;99901.53;5046620;28;20388;-73
2020/12/26 05:13:55;;;;;;;3.22;0.77;;;;;;;10.07;68.97;99892.84;5043748;28;20444;-73
2020/12/26 05:16:21;;;;;;;1.52;0.80;;;;;;;10.46;68.33;99891.00;5040988;28;20065;-73
2020/12/26 05:18:49;;;;;;;1.70;0.88;;;;;;;10.34;68.56;99893.69;5046448;28;20053;-73
2020/12/26 05:21:24;;;;;;;0.70;0.70;;;;;;;10.04;69.41;99881.53;5041290;28;20125;-74
2020/12/26 05:24:24;;;;;;;1.00;0.90;;;;;;;10.22;69.26;99868.47;5047829;28;20047;-73
2020/12/26 05:26:53;;;;;;;1.83;1.05;;;;;;;10.12;69.60;99864.09;5044344;28;20199;-73
2020/12/26 05:29:21;;;;;;;1.02;0.93;;;;;;;10.23;69.10;99848.44;5030837;28;20057;-73
2020/12/26 05:31:59;;;;;;;0.98;0.90;;;;;;;10.21;68.97;99858.03;5027789;28;20075;-73
2020/12/26 05:34:46;;;;;;;0.77;0.70;;;;;;;10.19;68.79;99859.78;5015832;28;20111;-74
2020/12/26 05:37:18;;;;;;;1.83;1.08;;;;;;;9.76;70.09;99838.13;5035657;28;20068;-76
2020/12/26 05:39:45;;;;;;;0.93;0.93;;;;;;;9.97;69.61;99846.78;5028727;28;20045;-74
2020/12/26 05:42:19;;;;;;;3.85;1.02;;;;;;;10.36;67.89;99843.16;5041721;28;20071;-73
2020/12/26 05:44:46;;;;;;;0.73;0.70;;;;;;;10.43;67.95;99838.78;5026287;28;20045;-74
2020/12/26 05:47:14;;;;;;;2.17;0.80;;;;;;;10.23;68.02;99824.94;5013221;28;20056;-75
2020/12/26 05:49:41;;;;;;;2.28;0.80;;;;;;;10.17;67.94;99841.50;5029082;28;20450;-74
2020/12/26 05:52:13;;;;;;;1.30;0.57;;;;;;;10.57;66.41;99831.75;5030566;28;20403;-73
2020/12/26 05:54:49;;;;;;;2.83;0.80;;;;;;;10.85;65.16;99828.09;5026272;28;20049;-73
2020/12/26 05:57:17;;;;;;;3.60;0.70;;;;;;;10.59;65.65;99823.94;5033736;28;20146;-73
2020/12/26 05:59:49;;;;;;;2.13;0.57;;;;;;;10.79;65.60;99829.91;5045387;28;20041;-74
2020/12/26 06:02:19;;;;;;;2.13;0.80;;;;;;;10.88;65.00;99825.50;5031650;28;20136;-72
2020/12/26 06:04:55;;;;;;;0.98;0.77;;;;;;;10.48;67.13;99823.97;5046077;28;20045;-73
2020/12/26 06:07:24;;;;;;;0.50;0.50;;;;;;;10.29;67.23;99802.31;5040151;28;20095;-74
2020/12/26 06:09:52;;;;;;;1.17;0.73;;;;;;;10.32;67.06;99811.84;5069231;28;20047;-73
2020/12/26 06:12:21;;;;;;;0.80;0.35;;;;;;;10.64;66.18;99804.75;5029771;28;20118;-73
2020/12/26 06:14:48;;;;;;;4.35;0.70;;;;;;;10.88;65.35;99816.78;5054914;28;20037;-72
2020/12/26 06:17:24;;;;;;;0.88;0.52;;;;;;;10.78;65.31;99788.97;5047858;28;20041;-73
2020/12/26 06:20:05;;;;;;;3.42;0.90;;;;;;;10.78;65.56;99786.34;5037684;28;20053;-73
2020/12/26 06:22:49;;;;;;;2.20;1.00;;;;;;;10.37;66.60;99778.75;5042296;28;20123;-73
2020/12/26 06:25:16;;;;;;;5.32;0.82;;;;;;;10.46;66.15;99773.47;5028106;28;20040;-75
2020/12/26 06:28:04;;;;;;;2.83;0.90;;;;;;;10.26;66.04;99770.13;5038909;28;20432;-74
2020/12/26 06:30:31;;;;;;;3.30;1.42;;;;;;;10.37;65.88;99783.97;5042804;28;20056;-72
2020/12/26 06:33:01;;;;;;;3.40;1.15;;;;;;;10.53;65.34;99782.16;5039564;28;20052;-73
2020/12/26 06:35:32;;;;;;;2.03;1.42;;;;;;;10.59;64.73;99779.53;5040395;28;20053;-73
2020/12/26 06:38:16;;;;;;;2.28;2.05;;;;;;;10.34;65.43;99779.66;5047500;28;20040;-73
2020/12/26 06:40:50;;;;;;;3.38;1.58;;;;;;;10.41;64.81;99772.63;5062877;28;20041;-73
2020/12/26 06:43:39;;;;;;;2.65;1.60;;;;;;;10.18;65.64;99767.53;5047461;28;20468;-73
2020/12/26 06:46:28;;;;;;;1.65;1.38;;;;;;;10.11;65.59;99764.94;5042661;28;20044;-73
2020/12/26 06:48:57;;;;;;;2.25;1.35;;;;;;;10.48;64.34;99758.69;5042238;28;20400;-72
2020/12/26 06:51:32;;;;;;;3.45;1.30;;;;;;;10.31;64.54;99761.38;5043197;28;20041;-74
2020/12/26 06:54:01;;;;;;;1.52;1.30;;;;;;;10.23;64.75;99752.72;5026378;28;20516;-73
2020/12/26 06:56:37;;;;;;;2.33;1.40;;;;;;;9.93;65.75;99744.97;5047301;28;20049;-74
2020/12/26 06:59:14;;;;;;;3.40;1.40;;;;;;;10.00;65.96;99746.72;5042393;28;20060;-74
2020/12/26 07:01:45;;;;;;;1.38;1.15;;;;;;;10.93;63.52;99749.66;5061524;28;20391;-73
2020/12/26 07:04:22;;;;;;;6.88;1.65;;;;;;;10.64;63.77;99746.41;5046187;28;20041;-73
2020/12/26 07:06:50;;;;;;;2.20;1.45;;;;;;;10.80;63.10;99750.63;5045617;28;20045;-74
2020/12/26 07:09:18;;;;;;;2.65;1.70;;;;;;;10.75;63.15;99748.03;5044087;28;20092;-76
2020/12/26 07:11:50;;;;;;;1.67;1.58;;;;;;;11.07;62.59;99744.31;5039659;28;20060;-73
2020/12/26 07:14:33;;;;;;;4.50;1.30;;;;;;;10.34;64.84;99727.44;5041049;28;20037;-73
2020/12/26 07:17:13;;;;;;;0.70;0.50;;;;;;;10.40;65.34;99722.19;5058599;28;20053;-74
2020/12/26 07:19:43;;;;;;;2.05;0.70;;;;;;;10.53;64.68;99707.28;5032345;28;20080;-73
2020/12/26 07:22:17;;;;;;;1.27;0.50;;;;;;;10.34;65.00;99703.06;5044523;28;20068;-73
2020/12/26 07:24:46;;;;;;;2.35;0.73;;;;;;;11.05;63.05;99706.84;5042700;28;20051;-73
2020/12/26 07:27:19;;;;;;;1.98;0.65;;;;;;;10.60;64.19;99711.56;5080297;28;20048;-73
2020/12/26 07:30:08;;;;;;;4.57;1.58;;;;;;;10.36;64.84;99709.16;5041320;28;20137;-73
2020/12/26 07:32:35;;;;;;;2.35;1.00;;;;;;;10.67;63.56;99713.25;5041147;28;20052;-74
2020/12/26 07:35:05;;;;;;;1.40;0.80;;;;;;;10.52;63.75;99710.75;5040429;28;20034;-74
2020/12/26 07:37:33;;;;;;;1.50;1.02;;;;;;;10.91;63.45;99707.84;5042784;28;20061;-74
2020/12/26 07:39:59;;;;;;;2.03;1.05;;;;;;;10.65;64.17;99708.91;5042432;28;20843;-73
2020/12/26 07:42:26;;;;;;;1.25;1.15;;;;;;;10.91;63.61;99705.22;5034593;28;20124;-73
2020/12/26 07:44:52;;;;;;;0.98;0.70;;;;;;;10.61;63.72;99718.53;5048465;28;20072;-71
2020/12/26 07:47:19;;;;;;;1.33;1.20;;;;;;;11.00;62.94;99714.72;5041703;28;20131;-73
2020/12/26 07:49:58;;;;;;;3.47;1.58;;;;;;;11.35;62.28;99711.78;5040555;28;20455;-74
2020/12/26 07:52:26;;;;;;;1.83;1.40;;;;;;;11.42;60.94;99700.38;5026152;28;20559;-73
2020/12/26 07:54:58;;;;;;;2.53;1.55;;;;;;;10.93;62.99;99698.22;5070753;28;20036;-74
2020/12/26 07:57:25;;;;;;;2.00;1.35;;;;;;;10.67;63.60;99688.88;5046358;28;20040;-74
2020/12/26 07:59:51;;;;;;;2.78;1.83;;;;;;;11.12;62.60;99685.00;5038759;28;20049;-73
2020/12/26 08:02:19;;;;;;;6.80;2.03;;;;;;;10.70;63.22;99681.88;5028369;28;20446;-73
2020/12/26 08:04:47;;;;;;;2.03;1.60;;;;;;;10.70;63.48;99681.00;5038606;28;20045;-75
2020/12/26 08:07:15;;;;;;;3.85;1.88;;;;;;;10.81;63.18;99684.41;5024007;28;20053;-73
2020/12/26 08:09:49;;;;;;;2.47;2.00;;;;;;;10.68;63.57;99688.00;5044146;28;20063;-72
2020/12/26 08:12:17;;;;;;;4.20;2.10;;;;;;;10.87;63.23;99695.69;5043042;28;20038;-73
2020/12/26 08:14:43;;;;;;;3.22;1.75;;;;;;;10.76;63.59;99694.03;5040503;28;20044;-73
2020/12/26 08:17:11;;;;;;;1.70;1.60;;;;;;;10.85;63.08;99689.59;5045931;28;20128;-73
2020/12/26 08:19:38;;;;;;;1.60;1.50;;;;;;;10.62;63.93;99688.91;5027376;28;20049;-73
2020/12/26 08:22:04;;;;;;;3.55;1.30;;;;;;;10.74;63.61;99690.59;5045221;28;20064;-74
2020/12/26 08:24:31;;;;;;;1.33;1.10;;;;;;;10.70;64.32;99688.84;5040574;28;20087;-74
2020/12/26 08:26:57;;;;;;;2.83;1.30;;;;;;;10.18;66.06;99683.13;5031056;28;20504;-73
2020/12/26 08:29:30;;;;;;;1.00;0.90;;;;;;;10.64;65.12;99678.47;5046002;28;20033;-73
2020/12/26 08:32:08;;;;;;;1.95;0.88;;;;;;;10.90;64.36;99679.09;5027471;28;20217;-73
2020/12/26 08:34:47;;;;;;;1.02;0.82;;;;;;;10.61;65.25;99671.50;5040415;28;20131;-73
2020/12/26 08:37:39;;;;;;;4.95;1.00;;;;;;;11.26;63.92;99668.31;5055886;28;20052;-73
2020/12/26 08:40:11;;;;;;;1.13;0.73;;;;;;;10.84;64.76;99660.84;5042379;28;20048;-73
2020/12/26 08:42:39;;;;;;;2.40;0.90;;;;;;;10.94;64.89;99658.16;5044489;28;20075;-73
2020/12/26 08:45:24;;;;;;;3.03;1.00;;;;;;;10.53;66.18;99641.09;5040448;28;20048;-72
2020/12/26 08:47:51;;;;;;;4.03;1.30;;;;;;;10.55;66.44;99641.97;5054124;28;20042;-73
2020/12/26 08:50:17;;;;;;;2.33;1.10;;;;;;;10.02;67.82;99625.75;5040906;28;20064;-73
2020/12/26 08:52:45;;;;;;;1.02;0.80;;;;;;;10.25;66.85;99619.56;5040954;28;20841;-73
2020/12/26 08:55:11;;;;;;;2.20;0.88;;;;;;;10.53;65.94;99633.28;5058078;28;20453;-74
2020/12/26 08:57:38;;;;;;;6.10;1.30;;;;;;;10.89;64.77;99633.78;5045202;28;20353;-73
2020/12/26 09:00:22;;;;;;;6.80;1.50;;;;;;;10.50;64.26;99608.91;5043658;28;20124;-74
2020/12/26 09:02:50;;;;;;;6.53;1.65;;;;;;;10.47;64.30;99605.44;5046381;28;20395;-73
2020/12/26 18:06:33;;;;;;;12.02;2.65;;;;;;;11.15;60.23;97748.81;5138063;27;20147;-80
2020/12/26 18:09:00;;;;;;;15.43;2.33;;;;;;;11.38;58.45;97734.78;5077363;28;20125;-79
2020/12/26 18:11:32;;;;;;;16.67;2.88;;;;;;;11.54;58.12;97708.84;5060647;28;20052;-79
2020/12/26 18:13:59;;;;;;;8.32;1.95;;;;;;;11.39;58.26;97707.75;5080000;28;20113;-79
2020/12/26 18:16:27;;;;;;;10.68;1.98;;;;;;;11.34;58.00;97694.88;5092514;28;20036;-79
2020/12/26 18:18:54;;;;;;;13.55;2.47;;;;;;;11.62;57.74;97685.84;5073697;28;20044;-80
2020/12/26 18:21:23;;;;;;;11.77;2.30;;;;;;;11.82;56.71;97685.00;5059434;28;20048;-79
2020/12/26 18:23:49;;;;;;;75.30;24.05;;;;;;;11.34;58.39;97670.50;5097608;28;20440;-79
2020/12/26 18:26:16;;;;;;;32.85;9.07;;;;;;;11.32;58.73;97682.75;5070338;28;20112;-79
2020/12/26 18:28:44;;;;;;;31.10;10.45;;;;;;;11.15;59.42;97646.91;5080157;28;20052;-78
2020/12/26 18:31:11;;;;;;;31.77;7.20;;;;;;;10.78;59.92;97665.03;5074527;28;20047;-79
2020/12/26 18:33:39;;;;;;;61.35;21.15;;;;;;;11.40;58.94;97635.41;5095430;28;20040;-78
2020/12/26 18:36:07;;;;;;;19.45;6.68;;;;;;;11.37;58.01;97631.13;5066256;28;20056;-79
2020/12/26 18:38:36;;;;;;;29.70;8.38;;;;;;;11.48;58.42;97614.97;5083620;28;20063;-78
2020/12/26 18:41:05;;;;;;;16.75;3.42;;;;;;;11.49;58.05;97620.16;5092285;28;20124;-80
2020/12/26 18:43:32;;;;;;;14.98;2.33;;;;;;;11.19;58.53;97572.66;5077478;28;20073;-79
2020/12/26 18:46:00;;;;;;;20.65;3.35;;;;;;;12.02;56.80;97572.44;5073059;28;20052;-78
2020/12/26 18:48:28;;;;;;;23.75;3.85;;;;;;;11.53;57.73;97572.03;5082072;28;20036;-80
2020/12/26 18:50:56;;;;;;;13.07;2.55;;;;;;;11.01;59.30;97544.72;5075255;28;20169;-79
2020/12/26 18:53:24;;;;;;;17.65;2.72;;;;;;;11.24;58.93;97523.66;5069670;28;20249;-78
2020/12/26 18:55:50;;;;;;;24.90;3.42;;;;;;;11.46;58.16;97527.94;5086746;28;21039;-82
2020/12/26 18:58:18;;;;;;;17.15;3.33;;;;;;;11.40;58.36;97502.06;5069977;28;20036;-77
2020/12/26 19:00:47;;;;;;;23.58;2.90;;;;;;;11.35;58.44;97490.06;5068822;28;20044;-80
2020/12/26 19:03:19;;;;;;;20.77;3.10;;;;;;;11.59;57.10;97482.00;5055797;28;20442;-84
2020/12/26 19:05:46;;;;;;;17.15;3.13;;;;;;;11.58;57.86;97472.44;5081025;28;20135;-79
2020/12/26 19:08:13;;;;;;;15.77;2.88;;;;;;;11.65;57.38;97464.25;5079396;28;20047;-78
2020/12/26 19:10:40;;;;;;;18.35;3.03;;;;;;;10.94;59.35;97457.94;5084431;28;20040;-79
2020/12/26 19:13:07;;;;;;;20.95;3.40;;;;;;;11.12;58.68;97432.75;5060144;28;20478;-79
2020/12/26 19:15:35;;;;;;;20.08;2.97;;;;;;;11.42;57.92;97427.00;5073551;28;20048;-79
2020/12/26 19:18:08;;;;;;;24.40;3.25;;;;;;;11.35;58.79;97423.84;5046654;28;20502;-82
2020/12/26 19:20:41;;;;;;;18.60;2.60;;;;;;;11.48;59.11;97396.19;5067102;28;20100;-81
2020/12/26 19:23:10;;;;;;;19.83;3.83;;;;;;;11.45;59.33;97385.06;5047283;28;20044;-82
2020/12/26 19:26:26;;;;;;;18.33;2.70;;;;;;;11.41;59.21;97397.44;5056122;28;20040;-81
2020/12/26 19:28:58;;;;;;;15.43;3.25;;;;;;;11.17;60.60;97368.06;5060048;28;20047;-79
2020/12/26 19:31:42;;;;;;;19.05;3.28;;;;;;;11.14;60.63;97349.03;5065258;28;20105;-81
2020/12/26 19:34:09;;;;;;;17.63;2.77;;;;;;;11.36;61.09;97352.34;5056937;28;20414;-81
2020/12/26 19:36:36;;;;;;;20.83;3.00;;;;;;;11.01;62.64;97358.38;5080680;28;20834;-78
2020/12/26 19:39:04;;;;;;;17.73;2.63;;;;;;;11.04;62.73;97324.25;5061816;28;20076;-79
2020/12/26 19:41:32;;;;;;;19.67;3.22;;;;;;;10.90;64.08;97325.75;5084640;28;20037;-79
2020/12/26 19:44:00;;;;;;;22.35;3.08;;;;;;;11.02;63.76;97324.38;5067635;28;20039;-79
2020/12/26 19:46:27;;;;;;;29.25;3.45;;;;;;;10.96;64.42;97301.13;5067443;28;20036;-78
2020/12/26 19:48:54;;;;;;;13.43;1.83;;;;;;;10.89;64.45;97321.44;5062061;28;20092;-79
2020/12/26 19:51:35;;;;;;;20.77;3.47;;;;;;;10.91;64.87;97297.88;5065363;28;20052;-81
2020/12/26 19:54:03;;;;;;;19.00;3.35;;;;;;;10.55;66.56;97296.97;5076733;28;20055;-78
2020/12/26 19:56:32;;;;;;;20.80;3.33;;;;;;;10.81;66.46;97286.16;5061067;28;20041;-78
2020/12/26 19:58:58;;;;;;;17.55;2.40;;;;;;;10.75;66.97;97289.91;5042793;28;20147;-78
2020/12/26 20:01:31;;;;;;;18.15;3.00;;;;;;;10.66;68.29;97300.78;5066281;28;20040;-79
2020/12/26 20:04:00;;;;;;;17.20;2.45;;;;;;;10.50;67.57;97271.91;5043444;28;20052;-77
2020/12/26 20:06:29;;;;;;;17.35;3.00;;;;;;;10.59;68.62;97294.16;5058109;28;20040;-79
2020/12/26 20:08:57;;;;;;;11.88;2.25;;;;;;;10.49;69.28;97272.84;5048333;28;20040;-76
2020/12/26 20:11:24;;;;;;;21.25;2.75;;;;;;;10.67;68.59;97273.75;5050611;28;20055;-80
2020/12/26 20:14:00;;;;;;;11.90;2.20;;;;;;;10.06;69.94;97281.72;5080039;28;20455;-80
2020/12/26 20:16:28;;;;;;;24.15;11.45;;;;;;;10.44;69.42;97246.09;5051470;28;20054;-79
2020/12/26 20:18:56;;;;;;;11.48;3.42;;;;;;;10.37;69.32;97252.50;5063148;28;20044;-79
2020/12/26 20:21:31;;;;;;;18.98;10.57;;;;;;;10.30;69.49;97238.06;5040570;28;20149;-79
2020/12/26 20:24:09;;;;;;;10.50;1.88;;;;;;;10.30;70.25;97239.81;5048142;28;20048;-79
2020/12/26 20:26:43;;;;;;;9.30;1.63;;;;;;;9.96;70.75;97225.66;5050083;28;20046;-80
2020/12/26 20:29:10;;;;;;;7.25;1.67;;;;;;;10.23;69.91;97223.59;5068016;28;20067;-81
2020/12/26 20:31:43;;;;;;;4.57;0.95;;;;;;;10.15;70.90;97210.03;5053952;28;20044;-80
2020/12/26 20:34:10;;;;;;;7.90;1.05;;;;;;;10.37;69.49;97149.88;5069259;28;20074;-80
2020/12/26 20:36:38;;;;;;;6.40;0.95;;;;;;;10.34;69.79;97169.16;5066832;28;20089;-79
2020/12/26 20:39:06;;;;;;;4.90;1.05;;;;;;;10.26;68.99;97150.41;5077781;28;20059;-80
2020/12/26 20:41:36;;;;;;;8.27;1.20;;;;;;;10.40;68.94;97129.72;5043426;28;20422;-78
2020/12/26 20:44:06;;;;;;;4.82;1.20;;;;;;;10.34;69.54;97129.16;5062118;28;20380;-79